createdAt,value
2023-04-14T00:03:13.767Z,3.15
2023-04-14T00:08:17.869Z,3.08
2023-04-14T00:13:20.442Z,3.40
2023-04-14T00:18:23.774Z,2.88
2023-04-14T00:23:27.696Z,3.42
2023-04-14T00:28:30.240Z,2.30
2023-04-14T00:33:32.865Z,2.45
2023-04-14T00:38:38.695Z,3.00
2023-04-14T00:43:41.362Z,3.00
2023-04-14T00:48:44.160Z,2.83
2023-04-14T00:53:48.050Z,2.60
2023-04-14T00:58:52.326Z,2.50
2023-04-14T01:03:55.170Z,2.20
2023-04-14T01:08:59.717Z,2.30
2023-04-14T01:14:07.728Z,2.13
2023-04-14T01:19:17.808Z,2.33
2023-04-14T01:24:45.836Z,2.50
2023-04-14T01:30:03.938Z,2.33
2023-04-14T01:35:13.110Z,2.40
2023-04-14T01:40:17.564Z,2.35
2023-04-14T01:45:22.449Z,2.20
2023-04-14T01:50:27.454Z,2.30
2023-04-14T01:55:32.053Z,2.60
2023-04-14T02:00:36.907Z,2.00
2023-04-14T02:05:41.591Z,2.10
2023-04-14T02:10:46.926Z,2.00
2023-04-14T02:15:50.943Z,2.05
2023-04-14T02:20:57.000Z,2.00
2023-04-14T02:26:02.310Z,2.00
2023-04-14T02:31:07.396Z,1.98
2023-04-14T02:36:15.260Z,2.05
2023-04-14T02:41:21.243Z,2.08
2023-04-14T02:46:25.052Z,2.08
2023-04-14T02:51:29.901Z,2.15
2023-04-14T02:56:32.986Z,3.92
2023-04-14T03:01:36.272Z,1.95
2023-04-14T03:06:41.955Z,2.00
2023-04-14T03:11:46.472Z,2.20
2023-04-14T03:16:51.772Z,2.67
2023-04-14T03:22:00.142Z,2.22
2023-04-14T03:27:05.688Z,2.10
2023-04-14T03:32:09.311Z,1.88
2023-04-14T03:37:17.972Z,2.30
2023-04-14T03:42:22.558Z,2.10
2023-04-14T03:47:28.729Z,2.00
2023-04-14T03:52:37.003Z,2.33
2023-04-14T03:57:40.931Z,2.72
2023-04-14T04:02:46.512Z,2.33
2023-04-14T04:07:51.380Z,2.28
2023-04-14T04:12:54.597Z,2.60
2023-04-14T04:17:58.686Z,2.38
2023-04-14T04:23:03.639Z,2.20
2023-04-14T04:28:06.571Z,3.28
2023-04-14T04:33:11.329Z,2.80
2023-04-14T04:38:15.498Z,3.22
2023-04-14T04:43:20.972Z,2.67
2023-04-14T04:48:24.161Z,2.90
2023-04-14T04:53:28.109Z,3.25
2023-04-14T04:58:30.687Z,4.00
2023-04-14T05:03:33.277Z,3.45
2023-04-14T05:08:37.305Z,3.70
2023-04-14T05:13:40.091Z,3.20
2023-04-14T05:18:43.015Z,3.67
2023-04-14T05:23:47.831Z,3.35
2023-04-14T05:28:53.483Z,3.42
2023-04-14T05:33:56.177Z,3.17
2023-04-14T05:39:00.255Z,2.95
2023-04-14T05:44:04.525Z,3.03
2023-04-14T05:49:07.384Z,3.17
2023-04-14T05:54:11.283Z,3.30
2023-04-14T05:59:13.956Z,2.90
2023-04-14T06:04:16.686Z,2.78
2023-04-14T06:09:20.839Z,2.90
2023-04-14T06:14:23.415Z,3.00
2023-04-14T06:19:26.219Z,3.00
2023-04-14T06:24:30.280Z,3.47
2023-04-14T06:29:33.094Z,2.97
2023-04-14T06:34:35.869Z,3.08
2023-04-14T06:39:40.070Z,3.20
2023-04-14T06:44:42.662Z,3.00
2023-04-14T06:49:45.291Z,3.35
2023-04-14T06:54:49.524Z,3.47
2023-04-14T06:59:52.603Z,3.28
2023-04-14T07:04:55.320Z,4.00
2023-04-14T07:09:59.473Z,3.30
2023-04-14T07:15:02.053Z,3.53
2023-04-14T07:20:05.728Z,3.80
2023-04-14T07:25:10.182Z,3.45
2023-04-14T07:30:13.145Z,3.03
2023-04-14T07:35:15.891Z,3.00
2023-04-14T07:40:20.060Z,3.70
2023-04-14T07:45:22.802Z,2.97
2023-04-14T07:50:25.421Z,2.78
2023-04-14T07:55:29.373Z,2.90
2023-04-14T08:00:31.947Z,3.38
2023-04-14T08:05:34.634Z,3.10
2023-04-14T08:10:38.905Z,2.78
2023-04-14T08:15:41.610Z,2.47
2023-04-14T08:20:44.482Z,3.00
2023-04-14T08:25:48.524Z,2.92
2023-04-14T08:30:51.307Z,2.38
2023-04-14T08:36:00.056Z,3.22
2023-04-14T08:41:05.474Z,2.80
2023-04-14T08:46:09.454Z,3.10
2023-04-14T08:51:14.947Z,3.17
2023-04-14T08:56:19.684Z,3.22
2023-04-14T09:01:22.359Z,2.90
2023-04-14T09:06:24.975Z,2.90
2023-04-14T09:11:28.936Z,3.15
2023-04-14T09:16:32.298Z,2.92
2023-04-14T09:21:51.535Z,2.95
2023-04-14T09:26:58.454Z,2.50
2023-04-14T09:32:01.263Z,2.78
2023-04-14T09:37:05.209Z,2.53
2023-04-14T09:42:09.085Z,2.15
2023-04-14T09:47:15.331Z,2.42
2023-04-14T09:52:18.031Z,2.20
2023-04-14T09:57:27.370Z,2.00
2023-04-14T10:02:30.755Z,2.00
2023-04-14T10:07:33.831Z,1.88
2023-04-14T10:12:37.830Z,2.30
2023-04-14T10:17:42.768Z,2.97
2023-04-14T10:22:45.974Z,2.35
2023-04-14T10:27:50.287Z,2.47
2023-04-14T10:32:53.398Z,1.98
2023-04-14T10:37:55.955Z,1.42
2023-04-14T10:42:59.877Z,2.10
2023-04-14T10:48:03.671Z,1.27
2023-04-14T10:53:09.268Z,1.90
2023-04-14T10:58:20.054Z,1.33
2023-04-14T11:03:24.604Z,1.33
2023-04-14T11:08:28.969Z,1.27
2023-04-14T11:13:34.023Z,1.50
2023-04-14T11:18:38.613Z,1.75
2023-04-14T11:23:41.837Z,1.75
2023-04-14T11:28:46.608Z,1.80
2023-04-14T11:33:49.217Z,1.77
2023-04-14T11:38:52.057Z,1.85
2023-04-14T11:43:56.179Z,1.80
2023-04-14T11:48:59.535Z,2.20
2023-04-14T11:54:03.296Z,1.80
2023-04-14T11:59:07.263Z,2.08
2023-04-14T12:04:10.615Z,2.00
2023-04-14T12:09:13.356Z,1.50
2023-04-14T12:14:17.375Z,1.70
2023-04-14T12:19:20.279Z,1.63
2023-04-14T12:24:22.892Z,1.38
2023-04-14T12:29:26.964Z,1.42
2023-04-14T12:34:29.728Z,1.33
2023-04-14T12:39:53.248Z,1.48
2023-04-14T12:44:56.339Z,1.95
2023-04-14T12:49:59.546Z,2.30
2023-04-14T12:55:04.864Z,2.00
2023-04-14T13:00:08.905Z,1.40
2023-04-14T13:05:12.043Z,1.00
2023-04-14T13:10:15.992Z,1.00
2023-04-14T13:16:11.431Z,0.90
2023-04-14T13:20:41.327Z,1.00
2023-04-14T13:25:45.272Z,1.00
2023-04-14T13:30:49.045Z,0.98
2023-04-14T13:35:52.950Z,0.70
2023-04-14T13:40:57.090Z,1.73
2023-04-14T13:46:00.481Z,0.98
2023-04-14T13:51:03.307Z,1.00
2023-04-14T13:56:07.400Z,0.77
2023-04-14T14:01:10.782Z,0.85
2023-04-14T14:06:14.172Z,0.93
2023-04-14T14:11:18.587Z,1.45
2023-04-14T14:16:36.097Z,1.00
2023-04-14T14:21:40.323Z,0.90
2023-04-14T14:26:44.360Z,0.88
2023-04-14T14:31:47.022Z,0.90
2023-04-14T14:36:49.673Z,1.10
2023-04-14T14:41:53.817Z,1.80
2023-04-14T14:46:57.238Z,1.23
2023-04-14T14:52:01.762Z,0.90
2023-04-14T14:57:07.528Z,1.17
2023-04-14T15:02:10.186Z,1.48
2023-04-14T15:07:13.934Z,1.30
2023-04-14T15:12:18.322Z,1.30
2023-04-14T15:17:21.108Z,0.90
2023-04-14T15:22:23.792Z,1.10
2023-04-14T15:27:27.844Z,1.50
2023-04-14T15:32:30.667Z,1.83
2023-04-14T15:37:33.298Z,1.30
2023-04-14T15:42:37.271Z,1.08
2023-04-14T15:47:39.961Z,1.38
2023-04-14T15:52:42.486Z,1.63
2023-04-14T15:57:46.462Z,2.17
2023-04-14T16:02:49.165Z,1.52
2023-04-14T16:07:51.885Z,1.60
2023-04-14T16:12:55.812Z,1.33
2023-04-14T16:17:58.608Z,1.70
2023-04-14T16:23:01.536Z,1.50
2023-04-14T16:28:05.501Z,1.30
2023-04-14T16:33:08.321Z,1.30
2023-04-14T16:38:10.993Z,1.30
2023-04-14T16:43:15.128Z,1.25
2023-04-14T16:48:18.274Z,1.30
2023-04-14T16:53:21.752Z,1.80
2023-04-14T16:58:25.683Z,2.10
2023-04-14T17:03:28.395Z,1.80
2023-04-14T17:08:31.073Z,1.70
2023-04-14T17:13:35.087Z,1.65
2023-04-14T17:18:38.014Z,1.80
2023-04-14T17:23:40.824Z,1.50
2023-04-14T17:28:45.537Z,1.77
2023-04-14T17:33:48.118Z,1.83
2023-04-14T17:38:50.655Z,1.75
2023-04-14T17:43:54.529Z,2.10
2023-04-14T17:48:57.357Z,2.30
2023-04-14T17:54:00.204Z,2.10
2023-04-14T17:59:04.362Z,2.10
2023-04-14T18:04:07.014Z,2.40
2023-04-14T18:09:11.127Z,2.25
2023-04-14T18:14:15.374Z,2.50
2023-04-14T18:19:17.938Z,2.40
2023-04-14T18:29:27.557Z,2.22
2023-04-14T18:34:30.791Z,2.70
2023-04-14T18:39:34.322Z,3.05
2023-04-14T18:44:38.231Z,2.78
2023-04-14T18:49:40.915Z,2.35
2023-04-14T18:54:43.421Z,2.47
2023-04-14T18:59:47.616Z,2.60
2023-04-14T19:04:50.298Z,2.65
2023-04-14T19:09:52.911Z,2.50
2023-04-14T19:14:56.912Z,2.22
2023-04-14T19:19:59.630Z,2.60
2023-04-14T19:25:02.477Z,4.55
2023-04-14T19:30:07.269Z,2.90
2023-04-14T19:35:10.282Z,2.85
2023-04-14T19:40:13.872Z,2.55
2023-04-14T19:45:17.981Z,2.35
2023-04-14T19:50:22.666Z,2.75
2023-04-14T19:55:25.477Z,2.72
2023-04-14T20:00:29.408Z,2.60
2023-04-14T20:05:31.961Z,2.65
2023-04-14T20:10:34.720Z,2.50
2023-04-14T20:15:39.390Z,3.08
2023-04-14T20:20:42.530Z,2.80
2023-04-14T20:25:45.541Z,2.88
2023-04-14T20:30:51.259Z,2.90
2023-04-14T20:35:54.321Z,2.50
2023-04-14T20:40:57.029Z,2.60
2023-04-14T20:46:01.105Z,2.40
2023-04-14T20:51:03.936Z,2.22
2023-04-14T20:56:07.161Z,2.20
2023-04-14T21:01:11.587Z,2.35
2023-04-14T21:06:14.149Z,2.15
2023-04-14T21:11:18.542Z,2.10
2023-04-14T21:16:23.157Z,2.85
2023-04-14T21:21:26.159Z,2.58
2023-04-14T21:26:29.420Z,2.10
2023-04-14T21:31:33.699Z,2.33
2023-04-14T21:36:36.592Z,2.17
2023-04-14T21:41:39.126Z,3.00
2023-04-14T21:46:43.243Z,3.08
2023-04-14T21:51:46.183Z,3.03
2023-04-14T21:56:48.749Z,3.75
2023-04-14T22:01:52.902Z,3.70
2023-04-14T22:06:55.544Z,3.15
2023-04-14T22:11:58.093Z,2.90
2023-04-14T22:17:03.089Z,2.80
2023-04-14T22:22:06.285Z,2.53
2023-04-14T22:27:08.932Z,2.50
2023-04-14T22:32:12.861Z,2.35
2023-04-14T22:37:15.362Z,1.90
2023-04-14T22:42:17.977Z,1.88
2023-04-14T22:47:22.386Z,2.25
2023-04-14T22:52:25.072Z,2.45
2023-04-14T22:57:27.666Z,2.30
2023-04-14T23:02:32.241Z,2.88
2023-04-14T23:07:34.933Z,2.53
2023-04-14T23:12:37.755Z,2.17
2023-04-14T23:17:41.773Z,2.58
2023-04-14T23:22:45.344Z,2.58
2023-04-14T23:27:48.185Z,2.63
2023-04-14T23:32:52.207Z,2.65
2023-04-14T23:37:56.474Z,2.75
2023-04-14T23:42:59.488Z,2.70
2023-04-14T23:48:03.506Z,2.65
2023-04-14T23:53:06.170Z,2.80
2023-04-14T23:58:08.864Z,2.90
